sensor_id;sensor_type;location;lat;lon;timestamp;P1;durP1;ratioP1;P2;durP2;ratioP2
13660;SDS011;6903;49.480;11.102;2023-08-06T00:00:27;8.67;;;7.73;;
13660;SDS011;6903;49.480;11.102;2023-08-06T00:02:53;7.63;;;6.77;;
13660;SDS011;6903;49.480;11.102;2023-08-06T00:05:18;9.97;;;6.97;;
13660;SDS011;6903;49.480;11.102;2023-08-06T00:07:45;8.10;;;7.27;;
13660;SDS011;6903;49.480;11.102;2023-08-06T00:10:11;7.80;;;7.10;;
13660;SDS011;6903;49.480;11.102;2023-08-06T00:12:36;7.80;;;7.10;;
13660;SDS011;6903;49.480;11.102;2023-08-06T00:15:02;8.83;;;7.27;;
13660;SDS011;6903;49.480;11.102;2023-08-06T00:17:27;7.77;;;7.03;;
13660;SDS011;6903;49.480;11.102;2023-08-06T00:19:52;8.77;;;7.07;;
13660;SDS011;6903;49.480;11.102;2023-08-06T00:22:18;8.40;;;6.93;;
13660;SDS011;6903;49.480;11.102;2023-08-06T00:24:43;7.43;;;6.63;;
13660;SDS011;6903;49.480;11.102;2023-08-06T00:27:08;8.73;;;7.00;;
13660;SDS011;6903;49.480;11.102;2023-08-06T00:29:33;9.50;;;7.57;;
13660;SDS011;6903;49.480;11.102;2023-08-06T00:31:59;7.83;;;7.03;;
13660;SDS011;6903;49.480;11.102;2023-08-06T00:34:24;8.23;;;6.93;;
13660;SDS011;6903;49.480;11.102;2023-08-06T00:36:49;9.13;;;7.80;;
13660;SDS011;6903;49.480;11.102;2023-08-06T00:39:15;9.50;;;7.07;;
13660;SDS011;6903;49.480;11.102;2023-08-06T00:41:40;8.43;;;7.00;;
13660;SDS011;6903;49.480;11.102;2023-08-06T00:44:05;7.53;;;6.77;;
13660;SDS011;6903;49.480;11.102;2023-08-06T00:46:31;8.80;;;7.20;;
13660;SDS011;6903;49.480;11.102;2023-08-06T00:48:58;8.17;;;7.37;;
13660;SDS011;6903;49.480;11.102;2023-08-06T00:51:24;9.50;;;7.57;;
13660;SDS011;6903;49.480;11.102;2023-08-06T00:53:50;12.93;;;8.17;;
13660;SDS011;6903;49.480;11.102;2023-08-06T00:56:17;8.77;;;7.87;;
13660;SDS011;6903;49.480;11.102;2023-08-06T00:58:42;8.87;;;7.90;;
13660;SDS011;6903;49.480;11.102;2023-08-06T01:01:09;9.53;;;8.27;;
13660;SDS011;6903;49.480;11.102;2023-08-06T01:03:35;9.50;;;8.47;;
13660;SDS011;6903;49.480;11.102;2023-08-06T01:06:00;11.07;;;9.10;;
13660;SDS011;6903;49.480;11.102;2023-08-06T01:11:26;9.77;;;8.77;;
13660;SDS011;6903;49.480;11.102;2023-08-06T01:14:06;8.93;;;8.03;;
13660;SDS011;6903;49.480;11.102;2023-08-06T01:16:37;12.10;;;9.33;;
13660;SDS011;6903;49.480;11.102;2023-08-06T01:19:04;10.27;;;9.23;;
13660;SDS011;6903;49.480;11.102;2023-08-06T01:21:30;10.90;;;9.50;;
13660;SDS011;6903;49.480;11.102;2023-08-06T01:23:55;10.03;;;9.03;;
13660;SDS011;6903;49.480;11.102;2023-08-06T01:26:27;9.97;;;8.97;;
13660;SDS011;6903;49.480;11.102;2023-08-06T01:31:32;10.53;;;9.43;;
13660;SDS011;6903;49.480;11.102;2023-08-06T01:34:01;10.00;;;8.67;;
13660;SDS011;6903;49.480;11.102;2023-08-06T01:36:29;9.90;;;8.90;;
13660;SDS011;6903;49.480;11.102;2023-08-06T01:38:55;9.90;;;8.23;;
13660;SDS011;6903;49.480;11.102;2023-08-06T01:41:22;10.23;;;9.23;;
13660;SDS011;6903;49.480;11.102;2023-08-06T01:43:47;9.57;;;8.57;;
13660;SDS011;6903;49.480;11.102;2023-08-06T01:46:13;10.00;;;8.93;;
13660;SDS011;6903;49.480;11.102;2023-08-06T01:48:38;9.40;;;8.50;;
13660;SDS011;6903;49.480;11.102;2023-08-06T01:51:04;11.70;;;9.57;;
13660;SDS011;6903;49.480;11.102;2023-08-06T01:53:30;10.33;;;8.70;;
13660;SDS011;6903;49.480;11.102;2023-08-06T01:55:56;10.50;;;9.50;;
13660;SDS011;6903;49.480;11.102;2023-08-06T01:58:22;9.73;;;8.73;;
13660;SDS011;6903;49.480;11.102;2023-08-06T02:00:47;11.77;;;9.10;;
13660;SDS011;6903;49.480;11.102;2023-08-06T02:03:12;11.63;;;8.90;;
13660;SDS011;6903;49.480;11.102;2023-08-06T02:05:38;11.00;;;9.20;;
13660;SDS011;6903;49.480;11.102;2023-08-06T02:08:03;10.63;;;9.57;;
13660;SDS011;6903;49.480;11.102;2023-08-06T02:10:28;9.60;;;8.60;;
13660;SDS011;6903;49.480;11.102;2023-08-06T02:12:54;11.43;;;9.70;;
13660;SDS011;6903;49.480;11.102;2023-08-06T02:15:19;11.40;;;9.53;;
13660;SDS011;6903;49.480;11.102;2023-08-06T02:17:44;10.27;;;8.90;;
13660;SDS011;6903;49.480;11.102;2023-08-06T02:20:10;10.17;;;9.00;;
13660;SDS011;6903;49.480;11.102;2023-08-06T02:22:35;9.93;;;8.93;;
13660;SDS011;6903;49.480;11.102;2023-08-06T02:25:00;10.13;;;8.57;;
13660;SDS011;6903;49.480;11.102;2023-08-06T02:27:26;12.30;;;9.07;;
13660;SDS011;6903;49.480;11.102;2023-08-06T02:29:51;9.43;;;8.00;;
13660;SDS011;6903;49.480;11.102;2023-08-06T02:32:16;11.30;;;7.90;;
13660;SDS011;6903;49.480;11.102;2023-08-06T02:34:42;8.63;;;7.73;;
13660;SDS011;6903;49.480;11.102;2023-08-06T02:37:07;8.57;;;7.67;;
13660;SDS011;6903;49.480;11.102;2023-08-06T02:39:32;9.30;;;8.07;;
13660;SDS011;6903;49.480;11.102;2023-08-06T02:41:59;7.87;;;6.60;;
13660;SDS011;6903;49.480;11.102;2023-08-06T02:44:27;8.17;;;7.20;;
13660;SDS011;6903;49.480;11.102;2023-08-06T02:46:52;7.77;;;6.60;;
13660;SDS011;6903;49.480;11.102;2023-08-06T02:49:18;6.80;;;6.00;;
13660;SDS011;6903;49.480;11.102;2023-08-06T02:51:44;7.27;;;6.57;;
13660;SDS011;6903;49.480;11.102;2023-08-06T02:54:10;7.57;;;5.70;;
13660;SDS011;6903;49.480;11.102;2023-08-06T02:56:35;6.70;;;5.90;;
13660;SDS011;6903;49.480;11.102;2023-08-06T02:59:01;8.73;;;5.67;;
13660;SDS011;6903;49.480;11.102;2023-08-06T03:01:26;6.30;;;5.70;;
13660;SDS011;6903;49.480;11.102;2023-08-06T03:03:52;5.87;;;5.37;;
13660;SDS011;6903;49.480;11.102;2023-08-06T03:06:17;6.70;;;5.53;;
13660;SDS011;6903;49.480;11.102;2023-08-06T03:08:42;7.20;;;5.43;;
13660;SDS011;6903;49.480;11.102;2023-08-06T03:11:08;6.37;;;5.17;;
13660;SDS011;6903;49.480;11.102;2023-08-06T03:13:33;6.17;;;4.67;;
13660;SDS011;6903;49.480;11.102;2023-08-06T03:15:59;6.23;;;5.60;;
13660;SDS011;6903;49.480;11.102;2023-08-06T03:18:25;6.30;;;5.70;;
13660;SDS011;6903;49.480;11.102;2023-08-06T03:20:53;6.60;;;4.93;;
13660;SDS011;6903;49.480;11.102;2023-08-06T03:23:19;7.30;;;5.70;;
13660;SDS011;6903;49.480;11.102;2023-08-06T03:25:44;6.40;;;5.80;;
13660;SDS011;6903;49.480;11.102;2023-08-06T03:28:10;6.50;;;5.43;;
13660;SDS011;6903;49.480;11.102;2023-08-06T03:30:35;6.60;;;5.90;;
13660;SDS011;6903;49.480;11.102;2023-08-06T03:33:01;7.57;;;6.13;;
13660;SDS011;6903;49.480;11.102;2023-08-06T03:35:26;6.03;;;5.43;;
13660;SDS011;6903;49.480;11.102;2023-08-06T03:37:51;7.37;;;6.40;;
13660;SDS011;6903;49.480;11.102;2023-08-06T03:40:17;10.27;;;5.90;;
13660;SDS011;6903;49.480;11.102;2023-08-06T03:42:42;7.93;;;6.10;;
13660;SDS011;6903;49.480;11.102;2023-08-06T03:45:07;6.77;;;6.07;;
13660;SDS011;6903;49.480;11.102;2023-08-06T03:47:34;7.57;;;6.20;;
13660;SDS011;6903;49.480;11.102;2023-08-06T03:49:59;7.17;;;5.97;;
13660;SDS011;6903;49.480;11.102;2023-08-06T03:52:24;7.20;;;5.70;;
13660;SDS011;6903;49.480;11.102;2023-08-06T03:54:50;7.13;;;6.33;;
13660;SDS011;6903;49.480;11.102;2023-08-06T03:57:15;7.63;;;6.00;;
13660;SDS011;6903;49.480;11.102;2023-08-06T03:59:40;7.30;;;6.07;;
13660;SDS011;6903;49.480;11.102;2023-08-06T04:02:06;8.53;;;7.00;;
13660;SDS011;6903;49.480;11.102;2023-08-06T04:04:31;10.70;;;8.63;;
13660;SDS011;6903;49.480;11.102;2023-08-06T04:06:56;10.17;;;9.07;;
13660;SDS011;6903;49.480;11.102;2023-08-06T04:09:22;10.20;;;9.00;;
13660;SDS011;6903;49.480;11.102;2023-08-06T04:11:47;12.07;;;9.23;;
13660;SDS011;6903;49.480;11.102;2023-08-06T04:14:12;12.10;;;9.20;;
13660;SDS011;6903;49.480;11.102;2023-08-06T04:16:38;10.40;;;9.20;;
13660;SDS011;6903;49.480;11.102;2023-08-06T04:19:03;11.27;;;9.20;;
13660;SDS011;6903;49.480;11.102;2023-08-06T04:21:28;10.97;;;8.23;;
13660;SDS011;6903;49.480;11.102;2023-08-06T04:23:54;11.83;;;9.30;;
13660;SDS011;6903;49.480;11.102;2023-08-06T04:26:19;12.27;;;9.40;;
13660;SDS011;6903;49.480;11.102;2023-08-06T04:28:44;10.33;;;9.27;;
13660;SDS011;6903;49.480;11.102;2023-08-06T04:31:09;10.77;;;8.47;;
13660;SDS011;6903;49.480;11.102;2023-08-06T04:33:35;9.30;;;8.30;;
13660;SDS011;6903;49.480;11.102;2023-08-06T04:36:00;11.40;;;8.90;;
13660;SDS011;6903;49.480;11.102;2023-08-06T04:38:26;10.63;;;8.43;;
13660;SDS011;6903;49.480;11.102;2023-08-06T04:40:51;11.03;;;9.10;;
13660;SDS011;6903;49.480;11.102;2023-08-06T04:43:17;11.50;;;8.77;;
13660;SDS011;6903;49.480;11.102;2023-08-06T04:46:00;9.03;;;7.77;;
13660;SDS011;6903;49.480;11.102;2023-08-06T04:48:25;9.57;;;7.97;;
13660;SDS011;6903;49.480;11.102;2023-08-06T04:50:51;8.03;;;7.20;;
13660;SDS011;6903;49.480;11.102;2023-08-06T04:53:16;7.83;;;7.00;;
13660;SDS011;6903;49.480;11.102;2023-08-06T04:55:42;7.30;;;6.57;;
13660;SDS011;6903;49.480;11.102;2023-08-06T04:58:09;8.33;;;6.50;;
13660;SDS011;6903;49.480;11.102;2023-08-06T05:00:35;9.13;;;7.07;;
13660;SDS011;6903;49.480;11.102;2023-08-06T05:03:00;7.20;;;6.40;;
13660;SDS011;6903;49.480;11.102;2023-08-06T05:05:26;9.00;;;6.77;;
13660;SDS011;6903;49.480;11.102;2023-08-06T05:07:54;8.37;;;7.30;;
13660;SDS011;6903;49.480;11.102;2023-08-06T05:10:21;9.50;;;7.43;;
13660;SDS011;6903;49.480;11.102;2023-08-06T05:12:46;10.10;;;7.90;;
13660;SDS011;6903;49.480;11.102;2023-08-06T05:15:11;10.47;;;7.90;;
13660;SDS011;6903;49.480;11.102;2023-08-06T05:17:37;8.20;;;7.40;;
13660;SDS011;6903;49.480;11.102;2023-08-06T05:20:02;8.83;;;7.93;;
13660;SDS011;6903;49.480;11.102;2023-08-06T05:22:28;6.27;;;5.67;;
13660;SDS011;6903;49.480;11.102;2023-08-06T05:24:53;4.73;;;4.23;;
13660;SDS011;6903;49.480;11.102;2023-08-06T05:27:18;4.60;;;4.17;;
13660;SDS011;6903;49.480;11.102;2023-08-06T05:29:44;5.10;;;4.43;;
13660;SDS011;6903;49.480;11.102;2023-08-06T05:32:10;4.50;;;4.10;;
13660;SDS011;6903;49.480;11.102;2023-08-06T05:34:35;4.63;;;4.07;;
13660;SDS011;6903;49.480;11.102;2023-08-06T05:37:00;4.57;;;4.07;;
13660;SDS011;6903;49.480;11.102;2023-08-06T05:39:26;3.78;;;3.10;;
13660;SDS011;6903;49.480;11.102;2023-08-06T05:41:51;3.22;;;2.92;;
13660;SDS011;6903;49.480;11.102;2023-08-06T05:44:17;3.58;;;2.78;;
13660;SDS011;6903;49.480;11.102;2023-08-06T05:46:42;2.92;;;2.72;;
13660;SDS011;6903;49.480;11.102;2023-08-06T05:49:08;3.00;;;2.70;;
13660;SDS011;6903;49.480;11.102;2023-08-06T05:51:33;4.13;;;2.80;;
13660;SDS011;6903;49.480;11.102;2023-08-06T05:53:58;2.83;;;2.63;;
13660;SDS011;6903;49.480;11.102;2023-08-06T05:56:24;3.13;;;2.80;;
13660;SDS011;6903;49.480;11.102;2023-08-06T05:58:49;3.38;;;3.08;;
13660;SDS011;6903;49.480;11.102;2023-08-06T06:01:17;3.20;;;2.90;;
13660;SDS011;6903;49.480;11.102;2023-08-06T06:03:43;3.88;;;3.00;;
13660;SDS011;6903;49.480;11.102;2023-08-06T06:06:08;3.67;;;2.78;;
13660;SDS011;6903;49.480;11.102;2023-08-06T06:08:34;3.20;;;2.70;;
13660;SDS011;6903;49.480;11.102;2023-08-06T06:10:59;2.90;;;2.70;;
13660;SDS011;6903;49.480;11.102;2023-08-06T06:13:24;2.95;;;2.38;;
13660;SDS011;6903;49.480;11.102;2023-08-06T06:15:49;3.78;;;2.63;;
13660;SDS011;6903;49.480;11.102;2023-08-06T06:18:15;5.43;;;2.90;;
13660;SDS011;6903;49.480;11.102;2023-08-06T06:20:40;2.85;;;2.65;;
13660;SDS011;6903;49.480;11.102;2023-08-06T06:23:05;2.47;;;2.28;;
13660;SDS011;6903;49.480;11.102;2023-08-06T06:25:31;2.50;;;2.30;;
13660;SDS011;6903;49.480;11.102;2023-08-06T06:27:56;2.90;;;2.70;;
13660;SDS011;6903;49.480;11.102;2023-08-06T06:30:21;2.60;;;2.40;;
13660;SDS011;6903;49.480;11.102;2023-08-06T06:32:47;2.63;;;2.42;;
13660;SDS011;6903;49.480;11.102;2023-08-06T06:35:12;3.33;;;2.40;;
13660;SDS011;6903;49.480;11.102;2023-08-06T06:37:37;3.85;;;2.90;;
13660;SDS011;6903;49.480;11.102;2023-08-06T06:40:03;3.53;;;2.63;;
13660;SDS011;6903;49.480;11.102;2023-08-06T06:42:29;3.10;;;2.80;;
13660;SDS011;6903;49.480;11.102;2023-08-06T06:44:54;4.18;;;3.15;;
13660;SDS011;6903;49.480;11.102;2023-08-06T06:47:19;2.95;;;2.65;;
13660;SDS011;6903;49.480;11.102;2023-08-06T06:49:45;2.95;;;2.60;;
13660;SDS011;6903;49.480;11.102;2023-08-06T06:52:10;4.80;;;2.78;;
13660;SDS011;6903;49.480;11.102;2023-08-06T06:54:36;2.95;;;2.65;;
13660;SDS011;6903;49.480;11.102;2023-08-06T06:57:01;3.25;;;2.92;;
13660;SDS011;6903;49.480;11.102;2023-08-06T06:59:27;3.35;;;2.80;;
13660;SDS011;6903;49.480;11.102;2023-08-06T07:01:52;3.20;;;2.90;;
13660;SDS011;6903;49.480;11.102;2023-08-06T07:04:17;3.13;;;2.83;;
13660;SDS011;6903;49.480;11.102;2023-08-06T07:06:43;4.78;;;3.90;;
13660;SDS011;6903;49.480;11.102;2023-08-06T07:09:08;4.15;;;3.30;;
13660;SDS011;6903;49.480;11.102;2023-08-06T07:11:33;3.70;;;3.40;;
13660;SDS011;6903;49.480;11.102;2023-08-06T07:13:59;4.15;;;3.60;;
13660;SDS011;6903;49.480;11.102;2023-08-06T07:16:25;4.50;;;3.92;;
13660;SDS011;6903;49.480;11.102;2023-08-06T07:18:51;4.30;;;3.38;;
13660;SDS011;6903;49.480;11.102;2023-08-06T07:21:17;3.45;;;3.15;;
13660;SDS011;6903;49.480;11.102;2023-08-06T07:23:43;4.38;;;3.40;;
13660;SDS011;6903;49.480;11.102;2023-08-06T07:26:08;3.90;;;3.50;;
13660;SDS011;6903;49.480;11.102;2023-08-06T07:28:34;4.22;;;3.08;;
13660;SDS011;6903;49.480;11.102;2023-08-06T07:30:59;3.75;;;2.90;;
13660;SDS011;6903;49.480;11.102;2023-08-06T07:33:25;3.35;;;3.05;;
13660;SDS011;6903;49.480;11.102;2023-08-06T07:35:50;5.07;;;2.80;;
13660;SDS011;6903;49.480;11.102;2023-08-06T07:38:15;3.85;;;3.13;;
13660;SDS011;6903;49.480;11.102;2023-08-06T07:40:41;3.50;;;3.20;;
13660;SDS011;6903;49.480;11.102;2023-08-06T07:43:06;3.58;;;3.25;;
13660;SDS011;6903;49.480;11.102;2023-08-06T07:45:32;3.25;;;2.65;;
13660;SDS011;6903;49.480;11.102;2023-08-06T07:47:59;2.85;;;2.65;;
13660;SDS011;6903;49.480;11.102;2023-08-06T07:50:25;3.92;;;2.90;;
13660;SDS011;6903;49.480;11.102;2023-08-06T07:52:50;3.17;;;2.88;;
13660;SDS011;6903;49.480;11.102;2023-08-06T07:55:15;2.83;;;2.60;;
13660;SDS011;6903;49.480;11.102;2023-08-06T07:57:41;3.08;;;2.03;;
13660;SDS011;6903;49.480;11.102;2023-08-06T08:00:06;2.40;;;2.20;;
13660;SDS011;6903;49.480;11.102;2023-08-06T08:02:32;2.63;;;2.35;;
13660;SDS011;6903;49.480;11.102;2023-08-06T08:04:57;3.83;;;2.03;;
13660;SDS011;6903;49.480;11.102;2023-08-06T08:07:22;2.72;;;2.13;;
13660;SDS011;6903;49.480;11.102;2023-08-06T08:09:48;2.28;;;1.60;;
13660;SDS011;6903;49.480;11.102;2023-08-06T08:12:13;2.63;;;1.90;;
13660;SDS011;6903;49.480;11.102;2023-08-06T08:14:38;3.30;;;1.75;;
13660;SDS011;6903;49.480;11.102;2023-08-06T08:17:04;3.15;;;2.05;;
13660;SDS011;6903;49.480;11.102;2023-08-06T08:19:30;3.50;;;2.05;;
13660;SDS011;6903;49.480;11.102;2023-08-06T08:21:56;2.33;;;2.13;;
13660;SDS011;6903;49.480;11.102;2023-08-06T08:24:22;2.50;;;2.08;;
13660;SDS011;6903;49.480;11.102;2023-08-06T08:26:51;3.38;;;2.40;;
13660;SDS011;6903;49.480;11.102;2023-08-06T08:29:16;6.22;;;3.80;;
13660;SDS011;6903;49.480;11.102;2023-08-06T08:31:42;2.65;;;1.80;;
13660;SDS011;6903;49.480;11.102;2023-08-06T08:34:08;3.95;;;1.70;;
13660;SDS011;6903;49.480;11.102;2023-08-06T08:36:33;1.65;;;1.23;;
13660;SDS011;6903;49.480;11.102;2023-08-06T08:38:59;1.95;;;1.02;;
13660;SDS011;6903;49.480;11.102;2023-08-06T08:41:24;2.72;;;1.60;;
13660;SDS011;6903;49.480;11.102;2023-08-06T08:43:52;1.73;;;1.38;;
13660;SDS011;6903;49.480;11.102;2023-08-06T08:46:19;1.20;;;1.08;;
13660;SDS011;6903;49.480;11.102;2023-08-06T08:48:45;3.22;;;0.80;;
13660;SDS011;6903;49.480;11.102;2023-08-06T08:51:11;1.23;;;0.90;;
13660;SDS011;6903;49.480;11.102;2023-08-06T08:53:37;1.75;;;0.90;;
13660;SDS011;6903;49.480;11.102;2023-08-06T08:56:04;1.25;;;0.75;;
13660;SDS011;6903;49.480;11.102;2023-08-06T08:58:30;1.23;;;1.13;;
13660;SDS011;6903;49.480;11.102;2023-08-06T09:00:55;0.55;;;0.50;;
13660;SDS011;6903;49.480;11.102;2023-08-06T09:03:21;1.95;;;0.68;;
13660;SDS011;6903;49.480;11.102;2023-08-06T09:05:48;0.98;;;0.50;;
13660;SDS011;6903;49.480;11.102;2023-08-06T09:08:18;0.50;;;0.50;;
13660;SDS011;6903;49.480;11.102;2023-08-06T09:10:47;0.68;;;0.60;;
13660;SDS011;6903;49.480;11.102;2023-08-06T09:13:13;0.40;;;0.40;;
13660;SDS011;6903;49.480;11.102;2023-08-06T09:15:39;1.48;;;1.38;;
13660;SDS011;6903;49.480;11.102;2023-08-06T09:18:10;0.52;;;0.52;;
13660;SDS011;6903;49.480;11.102;2023-08-06T09:20:37;0.75;;;0.50;;
13660;SDS011;6903;49.480;11.102;2023-08-06T09:23:09;1.10;;;0.60;;
13660;SDS011;6903;49.480;11.102;2023-08-06T09:25:38;0.43;;;0.40;;
13660;SDS011;6903;49.480;11.102;2023-08-06T09:28:07;0.85;;;0.50;;
13660;SDS011;6903;49.480;11.102;2023-08-06T09:30:33;0.68;;;0.40;;
13660;SDS011;6903;49.480;11.102;2023-08-06T09:33:02;0.63;;;0.50;;
13660;SDS011;6903;49.480;11.102;2023-08-06T09:35:28;0.80;;;0.70;;
13660;SDS011;6903;49.480;11.102;2023-08-06T09:37:54;1.55;;;1.20;;
13660;SDS011;6903;49.480;11.102;2023-08-06T09:40:27;1.33;;;0.52;;
13660;SDS011;6903;49.480;11.102;2023-08-06T09:42:57;1.05;;;0.50;;
13660;SDS011;6903;49.480;11.102;2023-08-06T09:45:23;0.40;;;0.40;;
13660;SDS011;6903;49.480;11.102;2023-08-06T09:47:56;0.40;;;0.40;;
13660;SDS011;6903;49.480;11.102;2023-08-06T09:50:22;0.43;;;0.40;;
13660;SDS011;6903;49.480;11.102;2023-08-06T09:52:48;1.55;;;0.60;;
13660;SDS011;6903;49.480;11.102;2023-08-06T09:55:15;0.68;;;0.47;;
13660;SDS011;6903;49.480;11.102;2023-08-06T09:57:41;1.55;;;0.50;;
13660;SDS011;6903;49.480;11.102;2023-08-06T10:00:07;0.63;;;0.50;;
13660;SDS011;6903;49.480;11.102;2023-08-06T10:02:35;0.70;;;0.35;;
13660;SDS011;6903;49.480;11.102;2023-08-06T10:05:02;1.00;;;0.55;;
13660;SDS011;6903;49.480;11.102;2023-08-06T10:07:29;0.30;;;0.30;;
13660;SDS011;6903;49.480;11.102;2023-08-06T10:09:55;0.82;;;0.43;;
13660;SDS011;6903;49.480;11.102;2023-08-06T10:12:21;0.82;;;0.43;;
13660;SDS011;6903;49.480;11.102;2023-08-06T10:14:48;0.70;;;0.50;;
13660;SDS011;6903;49.480;11.102;2023-08-06T10:17:15;0.70;;;0.55;;
13660;SDS011;6903;49.480;11.102;2023-08-06T10:19:41;0.50;;;0.43;;
13660;SDS011;6903;49.480;11.102;2023-08-06T10:24:49;0.70;;;0.40;;
13660;SDS011;6903;49.480;11.102;2023-08-06T10:27:20;1.48;;;0.70;;
13660;SDS011;6903;49.480;11.102;2023-08-06T10:29:47;1.33;;;0.50;;
13660;SDS011;6903;49.480;11.102;2023-08-06T10:32:13;0.50;;;0.43;;
13660;SDS011;6903;49.480;11.102;2023-08-06T10:37:21;0.45;;;0.30;;
13660;SDS011;6903;49.480;11.102;2023-08-06T10:39:49;1.05;;;0.70;;
13660;SDS011;6903;49.480;11.102;2023-08-06T10:42:19;0.82;;;0.47;;
13660;SDS011;6903;49.480;11.102;2023-08-06T10:47:42;0.95;;;0.47;;
13660;SDS011;6903;49.480;11.102;2023-08-06T10:50:10;0.77;;;0.40;;
13660;SDS011;6903;49.480;11.102;2023-08-06T10:52:37;0.30;;;0.30;;
13660;SDS011;6903;49.480;11.102;2023-08-06T10:55:02;0.38;;;0.35;;
13660;SDS011;6903;49.480;11.102;2023-08-06T10:57:28;0.30;;;0.30;;
13660;SDS011;6903;49.480;11.102;2023-08-06T10:59:53;1.02;;;0.60;;
13660;SDS011;6903;49.480;11.102;2023-08-06T11:02:19;0.30;;;0.30;;
13660;SDS011;6903;49.480;11.102;2023-08-06T11:04:44;0.40;;;0.40;;
13660;SDS011;6903;49.480;11.102;2023-08-06T11:07:09;0.68;;;0.40;;
13660;SDS011;6903;49.480;11.102;2023-08-06T11:09:35;0.68;;;0.40;;
13660;SDS011;6903;49.480;11.102;2023-08-06T11:12:00;0.88;;;0.70;;
13660;SDS011;6903;49.480;11.102;2023-08-06T11:14:25;1.60;;;1.13;;
13660;SDS011;6903;49.480;11.102;2023-08-06T11:16:51;1.17;;;0.30;;
13660;SDS011;6903;49.480;11.102;2023-08-06T11:19:16;0.40;;;0.40;;
13660;SDS011;6903;49.480;11.102;2023-08-06T11:21:42;1.10;;;0.30;;
13660;SDS011;6903;49.480;11.102;2023-08-06T11:24:11;1.23;;;0.88;;
13660;SDS011;6903;49.480;11.102;2023-08-06T11:26:37;0.50;;;0.40;;
13660;SDS011;6903;49.480;11.102;2023-08-06T11:29:05;1.08;;;0.40;;
13660;SDS011;6903;49.480;11.102;2023-08-06T11:31:30;0.40;;;0.40;;
13660;SDS011;6903;49.480;11.102;2023-08-06T11:33:55;1.70;;;0.52;;
13660;SDS011;6903;49.480;11.102;2023-08-06T11:36:30;0.63;;;0.63;;
13660;SDS011;6903;49.480;11.102;2023-08-06T11:38:57;0.50;;;0.50;;
13660;SDS011;6903;49.480;11.102;2023-08-06T11:41:23;1.25;;;0.80;;
13660;SDS011;6903;49.480;11.102;2023-08-06T11:43:48;0.90;;;0.60;;
13660;SDS011;6903;49.480;11.102;2023-08-06T11:46:14;0.40;;;0.40;;
13660;SDS011;6903;49.480;11.102;2023-08-06T11:48:55;0.30;;;0.30;;
13660;SDS011;6903;49.480;11.102;2023-08-06T11:51:27;0.40;;;0.40;;
13660;SDS011;6903;49.480;11.102;2023-08-06T11:53:56;0.20;;;0.20;;
13660;SDS011;6903;49.480;11.102;2023-08-06T11:56:22;0.57;;;0.40;;
13660;SDS011;6903;49.480;11.102;2023-08-06T11:58:52;0.30;;;0.30;;
13660;SDS011;6903;49.480;11.102;2023-08-06T12:01:17;0.35;;;0.35;;
13660;SDS011;6903;49.480;11.102;2023-08-06T12:03:43;0.30;;;0.30;;
13660;SDS011;6903;49.480;11.102;2023-08-06T12:06:08;0.30;;;0.30;;
13660;SDS011;6903;49.480;11.102;2023-08-06T12:08:34;0.57;;;0.43;;
13660;SDS011;6903;49.480;11.102;2023-08-06T12:10:59;0.32;;;0.32;;
13660;SDS011;6903;49.480;11.102;2023-08-06T12:13:24;0.38;;;0.38;;
13660;SDS011;6903;49.480;11.102;2023-08-06T12:15:50;1.58;;;0.50;;
13660;SDS011;6903;49.480;11.102;2023-08-06T12:18:17;0.40;;;0.40;;
13660;SDS011;6903;49.480;11.102;2023-08-06T12:20:43;0.40;;;0.40;;
13660;SDS011;6903;49.480;11.102;2023-08-06T12:23:08;0.70;;;0.40;;
13660;SDS011;6903;49.480;11.102;2023-08-06T12:25:34;0.40;;;0.40;;
13660;SDS011;6903;49.480;11.102;2023-08-06T12:28:00;0.98;;;0.47;;
13660;SDS011;6903;49.480;11.102;2023-08-06T12:30:25;0.47;;;0.47;;
13660;SDS011;6903;49.480;11.102;2023-08-06T12:32:51;0.95;;;0.60;;
13660;SDS011;6903;49.480;11.102;2023-08-06T12:35:16;0.68;;;0.68;;
13660;SDS011;6903;49.480;11.102;2023-08-06T12:37:42;0.50;;;0.50;;
13660;SDS011;6903;49.480;11.102;2023-08-06T12:40:08;0.52;;;0.52;;
13660;SDS011;6903;49.480;11.102;2023-08-06T12:42:34;0.77;;;0.50;;
13660;SDS011;6903;49.480;11.102;2023-08-06T12:44:59;0.82;;;0.57;;
13660;SDS011;6903;49.480;11.102;2023-08-06T12:47:25;0.40;;;0.40;;
13660;SDS011;6903;49.480;11.102;2023-08-06T12:49:50;0.40;;;0.40;;
13660;SDS011;6903;49.480;11.102;2023-08-06T12:52:15;0.47;;;0.30;;
13660;SDS011;6903;49.480;11.102;2023-08-06T12:54:41;0.43;;;0.40;;
13660;SDS011;6903;49.480;11.102;2023-08-06T12:57:06;0.40;;;0.40;;
13660;SDS011;6903;49.480;11.102;2023-08-06T12:59:32;0.35;;;0.35;;
13660;SDS011;6903;49.480;11.102;2023-08-06T13:02:01;0.50;;;0.40;;
13660;SDS011;6903;49.480;11.102;2023-08-06T13:04:27;1.83;;;0.50;;
13660;SDS011;6903;49.480;11.102;2023-08-06T13:06:53;0.88;;;0.40;;
13660;SDS011;6903;49.480;11.102;2023-08-06T13:09:18;0.40;;;0.40;;
13660;SDS011;6903;49.480;11.102;2023-08-06T13:11:44;0.40;;;0.40;;
13660;SDS011;6903;49.480;11.102;2023-08-06T13:14:11;0.40;;;0.40;;
13660;SDS011;6903;49.480;11.102;2023-08-06T13:16:38;0.30;;;0.30;;
13660;SDS011;6903;49.480;11.102;2023-08-06T13:19:06;0.30;;;0.30;;
13660;SDS011;6903;49.480;11.102;2023-08-06T13:21:32;0.40;;;0.40;;
13660;SDS011;6903;49.480;11.102;2023-08-06T13:23:59;0.43;;;0.40;;
13660;SDS011;6903;49.480;11.102;2023-08-06T13:26:26;1.00;;;0.50;;
13660;SDS011;6903;49.480;11.102;2023-08-06T13:28:52;0.50;;;0.50;;
13660;SDS011;6903;49.480;11.102;2023-08-06T13:31:17;0.60;;;0.40;;
13660;SDS011;6903;49.480;11.102;2023-08-06T13:33:43;0.52;;;0.30;;
13660;SDS011;6903;49.480;11.102;2023-08-06T13:36:08;1.05;;;0.50;;
13660;SDS011;6903;49.480;11.102;2023-08-06T13:38:33;0.47;;;0.47;;
13660;SDS011;6903;49.480;11.102;2023-08-06T13:40:59;1.00;;;0.80;;
13660;SDS011;6903;49.480;11.102;2023-08-06T13:43:24;0.50;;;0.50;;
13660;SDS011;6903;49.480;11.102;2023-08-06T13:45:49;0.20;;;0.20;;
13660;SDS011;6903;49.480;11.102;2023-08-06T13:48:14;0.60;;;0.50;;
13660;SDS011;6903;49.480;11.102;2023-08-06T13:50:40;0.30;;;0.30;;
13660;SDS011;6903;49.480;11.102;2023-08-06T13:53:05;0.50;;;0.50;;
13660;SDS011;6903;49.480;11.102;2023-08-06T13:55:31;0.30;;;0.30;;
13660;SDS011;6903;49.480;11.102;2023-08-06T13:57:56;0.40;;;0.40;;
13660;SDS011;6903;49.480;11.102;2023-08-06T14:00:21;0.40;;;0.40;;
13660;SDS011;6903;49.480;11.102;2023-08-06T14:02:47;0.75;;;0.28;;
13660;SDS011;6903;49.480;11.102;2023-08-06T14:05:12;1.08;;;0.40;;
13660;SDS011;6903;49.480;11.102;2023-08-06T14:07:38;0.40;;;0.40;;
13660;SDS011;6903;49.480;11.102;2023-08-06T14:10:03;1.75;;;0.40;;
13660;SDS011;6903;49.480;11.102;2023-08-06T14:12:29;0.30;;;0.30;;
13660;SDS011;6903;49.480;11.102;2023-08-06T14:14:55;0.30;;;0.30;;
13660;SDS011;6903;49.480;11.102;2023-08-06T14:17:20;0.30;;;0.30;;
13660;SDS011;6903;49.480;11.102;2023-08-06T14:19:45;0.43;;;0.43;;
13660;SDS011;6903;49.480;11.102;2023-08-06T14:22:10;0.85;;;0.40;;
13660;SDS011;6903;49.480;11.102;2023-08-06T14:24:36;0.40;;;0.40;;
13660;SDS011;6903;49.480;11.102;2023-08-06T14:27:01;0.40;;;0.40;;
13660;SDS011;6903;49.480;11.102;2023-08-06T14:29:29;0.52;;;0.40;;
13660;SDS011;6903;49.480;11.102;2023-08-06T14:31:54;0.50;;;0.40;;
13660;SDS011;6903;49.480;11.102;2023-08-06T14:34:19;0.55;;;0.50;;
13660;SDS011;6903;49.480;11.102;2023-08-06T14:36:44;0.50;;;0.40;;
13660;SDS011;6903;49.480;11.102;2023-08-06T14:39:10;0.50;;;0.50;;
13660;SDS011;6903;49.480;11.102;2023-08-06T14:41:35;0.90;;;0.40;;
13660;SDS011;6903;49.480;11.102;2023-08-06T14:44:00;0.67;;;0.40;;
13660;SDS011;6903;49.480;11.102;2023-08-06T14:46:26;0.33;;;0.33;;
13660;SDS011;6903;49.480;11.102;2023-08-06T14:48:51;0.67;;;0.40;;
13660;SDS011;6903;49.480;11.102;2023-08-06T14:51:16;0.40;;;0.40;;